Time;durP1;ratioP1;P1;durP2;ratioP2;P2;SDS_P1;SDS_P2;PMS_P1;PMS_P2;Temp;Humidity;BMP_temperature;BMP_pressure;BME280_temperature;BME280_humidity;BME280_pressure;Samples;Min_cycle;Max_cycle;Signal;HPM_P1;HPM_P2
2022/05/10 00:00:37;;;;;;;8.93;7.70;;;15.60;99.90;;;;;;5051177;28;20189;-82
2022/05/10 00:03:07;;;;;;;10.57;8.70;;;15.60;99.90;;;;;;5069467;28;20413;-82
2022/05/10 00:05:39;;;;;;;11.77;9.23;;;15.60;99.90;;;;;;5017762;28;20477;-82
2022/05/10 00:08:08;;;;;;;8.50;7.70;;;15.60;99.90;;;;;;5068959;28;20433;-82
2022/05/10 00:10:34;;;;;;;13.90;8.40;;;15.60;99.90;;;;;;5034472;28;20414;-81
2022/05/10 00:13:00;;;;;;;10.10;9.10;;;15.50;99.90;;;;;;5050635;28;20422;-83
2022/05/10 00:15:26;;;;;;;14.33;8.67;;;15.60;99.90;;;;;;5050569;28;20461;-82
2022/05/10 00:17:52;;;;;;;9.43;8.50;;;15.60;99.90;;;;;;5034366;28;20520;-82
2022/05/10 00:20:23;;;;;;;9.80;8.90;;;15.60;99.90;;;;;;5068571;28;20908;-82
2022/05/10 00:22:49;;;;;;;10.27;9.23;;;15.60;99.90;;;;;;5050617;28;20442;-83
2022/05/10 00:25:25;;;;;;;13.10;9.00;;;15.50;99.90;;;;;;5034341;28;20552;-81
2022/05/10 00:27:51;;;;;;;11.13;9.70;;;15.70;99.90;;;;;;5069740;28;20425;-82
2022/05/10 00:30:17;;;;;;;10.77;8.87;;;15.60;99.90;;;;;;5035244;28;20424;-82
2022/05/10 00:32:43;;;;;;;10.07;9.07;;;15.60;99.90;;;;;;5034573;28;20423;-81
2022/05/10 00:35:16;;;;;;;10.33;9.07;;;15.70;99.90;;;;;;5033476;28;20446;-82
2022/05/10 00:37:44;;;;;;;10.03;9.00;;;15.70;99.90;;;;;;5050137;28;20433;-82
2022/05/10 00:40:11;;;;;;;12.03;10.80;;;15.60;99.90;;;;;;5033999;28;20413;-83
2022/05/10 00:42:45;;;;;;;13.83;12.20;;;15.40;99.90;;;;;;5034198;28;20540;-82
2022/05/10 00:45:15;;;;;;;15.80;13.50;;;15.30;99.90;;;;;;5050789;28;20441;-82
2022/05/10 00:48:03;;;;;;;16.73;12.50;;;14.90;99.90;;;;;;5050688;28;20418;-82
2022/05/10 00:50:41;;;;;;;13.93;12.27;;;14.70;99.90;;;;;;5068501;28;20448;-82
2022/05/10 00:53:13;;;;;;;16.43;14.70;;;14.50;99.90;;;;;;5050643;28;20429;-82
2022/05/10 00:55:50;;;;;;;15.80;14.10;;;14.40;99.90;;;;;;5068381;28;20437;-82
2022/05/10 00:58:41;;;;;;;19.83;14.13;;;14.20;99.90;;;;;;5068391;28;20424;-82
2022/05/10 01:01:11;;;;;;;16.77;14.97;;;14.10;99.90;;;;;;5068148;28;20428;-82
2022/05/10 01:03:43;;;;;;;18.63;14.33;;;14.00;99.90;;;;;;5049923;28;20943;-83
2022/05/10 01:06:27;;;;;;;13.80;12.40;;;14.00;99.90;;;;;;5050011;28;20473;-82
2022/05/10 01:09:01;;;;;;;12.17;10.30;;;14.00;99.90;;;;;;5068544;28;20419;-82
2022/05/10 01:11:46;;;;;;;13.73;12.03;;;14.10;99.90;;;;;;5050421;28;20425;-82
2022/05/10 01:14:23;;;;;;;12.07;10.23;;;14.40;99.90;;;;;;5050504;28;20924;-81
2022/05/10 01:16:49;;;;;;;13.90;11.40;;;14.60;99.90;;;;;;5068939;28;20456;-82
2022/05/10 01:19:15;;;;;;;12.40;11.10;;;14.70;99.90;;;;;;5034457;28;20440;-82
2022/05/10 01:22:02;;;;;;;14.03;12.53;;;14.60;99.90;;;;;;5050815;28;20194;-82
2022/05/10 01:24:33;;;;;;;19.13;12.80;;;14.40;99.90;;;;;;5050312;28;20191;-82
2022/05/10 01:27:37;;;;;;;14.03;11.60;;;14.20;99.90;;;;;;5050132;28;20472;-82
2022/05/10 01:30:16;;;;;;;14.10;12.67;;;14.10;99.90;;;;;;5037736;28;20531;-81
2022/05/10 01:36:14;;;;;;;21.50;13.07;;;13.90;99.90;;;;;;5068894;28;20440;-82
2022/05/10 01:38:51;;;;;;;21.20;14.00;;;13.70;99.90;;;;;;5050314;28;20996;-82
2022/05/10 01:41:34;;;;;;;20.10;12.97;;;13.70;99.90;;;;;;5050506;28;20421;-82
2022/05/10 01:44:34;;;;;;;19.20;13.10;;;13.60;99.90;;;;;;5068650;28;20427;-82
2022/05/10 01:47:13;;;;;;;13.83;12.43;;;13.50;99.90;;;;;;5006599;28;20943;-82
2022/05/10 01:49:55;;;;;;;15.20;13.60;;;13.40;99.90;;;;;;5071540;28;20409;-82
2022/05/10 01:52:29;;;;;;;17.20;13.07;;;13.40;99.90;;;;;;5053539;28;20467;-82
2022/05/10 01:55:07;;;;;;;15.50;12.53;;;13.30;99.90;;;;;;5071912;28;20927;-82
2022/05/10 01:57:37;;;;;;;13.80;12.47;;;13.30;99.90;;;;;;5071706;28;20457;-81
2022/05/10 02:00:14;;;;;;;14.27;12.77;;;13.30;99.90;;;;;;5071562;28;20421;-81
2022/05/10 02:03:03;;;;;;;15.87;14.27;;;13.30;99.90;;;;;;5053379;28;20441;-81
2022/05/10 02:05:45;;;;;;;14.23;12.50;;;13.30;99.90;;;;;;5038899;28;20472;-81
2022/05/10 02:08:23;;;;;;;15.37;12.77;;;13.40;99.90;;;;;;5071228;28;20405;-82
2022/05/10 02:10:53;;;;;;;16.43;14.10;;;13.50;99.90;;;;;;5071361;28;20420;-82
2022/05/10 02:13:28;;;;;;;18.70;14.07;;;13.50;99.90;;;;;;5053105;28;20425;-81
2022/05/10 02:16:00;;;;;;;16.37;14.67;;;13.50;99.90;;;;;;5052882;28;20979;-81
2022/05/10 02:18:51;;;;;;;17.23;13.93;;;13.40;99.90;;;;;;5052735;28;20459;-82
2022/05/10 02:21:23;;;;;;;15.90;14.20;;;13.40;99.90;;;;;;5071023;28;20471;-81
2022/05/10 02:23:59;;;;;;;14.23;12.73;;;13.40;99.90;;;;;;5070646;28;20925;-81
2022/05/10 02:26:35;;;;;;;14.40;12.63;;;13.40;99.90;;;;;;5052600;28;20503;-82
2022/05/10 02:29:24;;;;;;;13.00;11.67;;;13.60;99.90;;;;;;5070976;28;20416;-82
2022/05/10 02:35:05;;;;;;;13.00;11.10;;;14.30;99.90;;;;;;5070170;28;20451;-82
2022/05/10 02:37:31;;;;;;;12.10;10.90;;;14.60;99.90;;;;;;5052274;28;20448;-81
2022/05/10 02:39:58;;;;;;;12.80;11.23;;;14.80;99.90;;;;;;5052492;28;20425;-82
2022/05/10 02:42:26;;;;;;;12.50;11.20;;;15.10;99.90;;;;;;5036150;28;20496;-81
2022/05/10 02:44:54;;;;;;;12.63;11.30;;;15.20;99.90;;;;;;5052119;28;20510;-81
2022/05/10 02:47:39;;;;;;;12.90;11.60;;;15.20;99.90;;;;;;5070345;28;20487;-81
2022/05/10 02:50:23;;;;;;;12.40;11.10;;;15.10;99.90;;;;;;5035674;28;20445;-81
2022/05/10 02:52:49;;;;;;;15.97;12.83;;;15.10;99.90;;;;;;5070396;28;20940;-80
2022/05/10 02:55:22;;;;;;;15.37;13.77;;;15.00;99.90;;;;;;5035360;28;20461;-80
2022/05/10 02:57:51;;;;;;;17.20;13.80;;;14.60;99.90;;;;;;5070084;28;20448;-81
2022/05/10 03:00:18;;;;;;;15.63;14.03;;;14.20;99.90;;;;;;5051912;28;20509;-80
2022/05/10 03:02:49;;;;;;;15.17;13.57;;;13.80;99.90;;;;;;5070257;28;20475;-81
2022/05/10 03:05:15;;;;;;;20.13;14.90;;;13.50;99.90;;;;;;5019381;28;20441;-80
2022/05/10 03:07:40;;;;;;;17.07;14.90;;;13.30;99.90;;;;;;5035746;28;20426;-80
2022/05/10 03:10:07;;;;;;;16.80;14.10;;;13.20;99.90;;;;;;5018680;28;20433;-81
2022/05/10 03:12:33;;;;;;;15.77;14.10;;;13.10;99.90;;;;;;5052001;28;20190;-80
2022/05/10 03:14:59;;;;;;;22.00;15.30;;;12.90;99.90;;;;;;5035214;28;20570;-81
2022/05/10 03:17:26;;;;;;;31.77;15.03;;;12.90;99.90;;;;;;5035238;28;20199;-80
2022/05/10 03:19:51;;;;;;;16.17;14.30;;;12.90;99.90;;;;;;5051965;28;20245;-81
2022/05/10 03:22:17;;;;;;;19.90;15.40;;;12.70;99.90;;;;;;5070217;28;20952;-81
2022/05/10 03:24:43;;;;;;;16.83;15.03;;;12.70;99.90;;;;;;5051981;28;21068;-82
2022/05/10 03:27:11;;;;;;;19.93;15.77;;;12.60;99.90;;;;;;5034825;28;20242;-81
2022/05/10 03:29:39;;;;;;;18.13;14.63;;;12.60;99.90;;;;;;5051510;28;20428;-81
2022/05/10 03:32:06;;;;;;;18.00;15.90;;;12.50;99.90;;;;;;5051544;28;20863;-81
2022/05/10 03:37:16;;;;;;;17.63;14.93;;;12.30;99.90;;;;;;5069801;28;20474;-81
2022/05/10 03:39:41;;;;;;;16.63;14.93;;;12.30;99.90;;;;;;5069738;28;20425;-81
2022/05/10 03:42:09;;;;;;;18.80;15.43;;;12.20;99.90;;;;;;5018689;28;20652;-81
2022/05/10 03:44:35;;;;;;;20.13;17.10;;;12.10;99.90;;;;;;5070010;28;20347;-81
2022/05/10 03:47:01;;;;;;;21.40;16.23;;;12.10;99.90;;;;;;5069986;28;20587;-82
2022/05/10 03:49:27;;;;;;;18.43;15.10;;;12.00;99.90;;;;;;5052016;28;20187;-82
2022/05/10 03:51:56;;;;;;;17.50;15.30;;;11.90;99.90;;;;;;5051956;28;20448;-81
2022/05/10 03:54:24;;;;;;;21.47;17.60;;;11.90;99.90;;;;;;5051720;28;20816;-81
2022/05/10 03:56:50;;;;;;;20.70;17.47;;;11.80;99.90;;;;;;5035133;28;21030;-81
2022/05/10 03:59:17;;;;;;;19.90;16.73;;;11.80;99.90;;;;;;5034796;28;20432;-82
2022/05/10 04:01:43;;;;;;;20.47;17.30;;;11.80;99.90;;;;;;5069282;28;20814;-81
2022/05/10 04:04:09;;;;;;;29.53;17.27;;;11.80;99.90;;;;;;5068709;28;20431;-81
2022/05/10 04:06:34;;;;;;;17.93;15.80;;;11.80;99.90;;;;;;5050924;28;20479;-81
2022/05/10 04:09:00;;;;;;;17.63;14.50;;;11.70;99.90;;;;;;5050761;28;20190;-81
2022/05/10 04:11:26;;;;;;;18.90;16.60;;;11.80;99.90;;;;;;5068745;28;20245;-81
2022/05/10 04:13:52;;;;;;;19.23;16.47;;;11.70;99.90;;;;;;5068501;28;20188;-81
2022/05/10 04:16:17;;;;;;;19.47;16.07;;;11.70;99.90;;;;;;5050624;28;20588;-81
2022/05/10 04:18:43;;;;;;;18.43;16.53;;;11.70;99.90;;;;;;5050934;28;20585;-82
2022/05/10 04:21:09;;;;;;;18.60;16.57;;;11.60;99.90;;;;;;5070530;28;20553;-81
2022/05/10 04:23:35;;;;;;;21.00;14.93;;;11.60;99.90;;;;;;5069586;28;20427;-82
2022/05/10 04:26:10;;;;;;;18.77;16.60;;;11.60;99.90;;;;;;5050488;28;20255;-81
2022/05/10 04:28:36;;;;;;;21.90;17.07;;;11.60;99.90;;;;;;5033852;28;20431;-81
2022/05/10 04:31:04;;;;;;;17.93;15.60;;;11.70;99.90;;;;;;5068777;28;20420;-81
2022/05/10 04:33:30;;;;;;;24.27;17.50;;;11.80;99.90;;;;;;5051195;28;20419;-82
2022/05/10 04:35:56;;;;;;;19.50;15.47;;;11.80;99.90;;;;;;5050456;28;20872;-82
2022/05/10 04:38:21;;;;;;;17.83;16.03;;;11.80;99.90;;;;;;5068958;28;20232;-81
2022/05/10 04:43:36;;;;;;;21.90;14.67;;;11.80;99.90;;;;;;5068644;28;20654;-81
2022/05/10 04:46:01;;;;;;;21.63;16.70;;;11.80;99.90;;;;;;5050033;28;20484;-81
2022/05/10 04:48:27;;;;;;;18.27;16.17;;;11.70;99.90;;;;;;5033559;28;21009;-81
2022/05/10 04:50:53;;;;;;;21.60;15.57;;;11.60;99.90;;;;;;5050429;28;20209;-81
2022/05/10 04:53:20;;;;;;;17.27;15.00;;;11.50;99.90;;;;;;5050595;28;20987;-81
2022/05/10 04:55:46;;;;;;;18.37;16.27;;;11.60;99.90;;;;;;5050272;28;20453;-82
2022/05/10 04:58:14;;;;;;;19.03;16.20;;;11.70;99.90;;;;;;5050111;28;21048;-81
2022/05/10 05:00:40;;;;;;;16.53;14.60;;;11.70;99.90;;;;;;5050342;28;20821;-81
2022/05/10 05:03:06;;;;;;;18.33;16.17;;;11.80;99.90;;;;;;5033822;28;20807;-81
2022/05/10 05:05:32;;;;;;;17.83;15.93;;;12.00;99.90;;;;;;5049728;28;20482;-81
2022/05/10 05:07:58;;;;;;;15.83;14.00;;;12.20;99.90;;;;;;5068278;28;20697;-81
2022/05/10 05:10:24;;;;;;;19.10;15.73;;;12.40;99.90;;;;;;5050241;28;20418;-81
2022/05/10 05:12:50;;;;;;;20.37;15.47;;;12.60;99.90;;;;;;5049804;28;20243;-81
2022/05/10 05:15:16;;;;;;;16.50;14.83;;;12.70;99.90;;;;;;5050031;28;20881;-81
2022/05/10 05:17:42;;;;;;;17.10;15.13;;;12.90;99.90;;;;;;5033427;28;20198;-81
2022/05/10 05:20:08;;;;;;;16.80;15.10;;;13.00;99.90;;;;;;5017141;28;21011;-79
2022/05/10 05:22:34;;;;;;;16.77;14.60;;;13.20;99.90;;;;;;5070205;28;20273;-81
2022/05/10 05:25:00;;;;;;;16.10;13.40;;;13.40;99.90;;;;;;5054334;28;20531;-81
2022/05/10 05:27:26;;;;;;;16.70;14.63;;;13.60;99.90;;;;;;5037740;28;20680;-81
2022/05/10 05:29:52;;;;;;;18.50;15.20;;;13.70;99.90;;;;;;5072534;28;20966;-81
2022/05/10 05:32:21;;;;;;;17.80;14.17;;;13.80;99.90;;;;;;5037358;28;20198;-81
2022/05/10 05:34:46;;;;;;;18.67;15.97;;;13.90;99.90;;;;;;5053441;28;20536;-81
2022/05/10 05:39:57;;;;;;;18.40;14.33;;;14.10;99.90;;;;;;5042822;28;20202;-81
2022/05/10 05:42:22;;;;;;;16.40;14.63;;;14.30;99.90;;;;;;5054012;28;20453;-81
2022/05/10 05:44:49;;;;;;;19.53;14.60;;;14.40;99.90;;;;;;5053530;28;20506;-81
2022/05/10 05:47:14;;;;;;;15.90;14.07;;;14.60;99.90;;;;;;5053641;28;20779;-81
2022/05/10 05:49:40;;;;;;;17.33;14.50;;;14.80;99.90;;;;;;5036953;28;20524;-82
2022/05/10 05:52:06;;;;;;;24.37;14.20;;;15.00;99.90;;;;;;5053739;28;20634;-81
2022/05/10 05:54:33;;;;;;;15.30;13.70;;;15.10;99.90;;;;;;5036758;28;20198;-81
2022/05/10 05:57:00;;;;;;;16.57;14.70;;;15.20;99.90;;;;;;5071420;28;20437;-81
2022/05/10 05:59:27;;;;;;;16.33;14.53;;;15.30;99.90;;;;;;5071315;28;20423;-81
2022/05/10 06:01:53;;;;;;;24.83;13.93;;;15.40;99.90;;;;;;5053236;28;20445;-81
2022/05/10 06:04:18;;;;;;;16.73;13.10;;;15.50;99.90;;;;;;5020005;28;20479;-81
2022/05/10 06:06:44;;;;;;;14.63;13.10;;;15.70;99.90;;;;;;5053202;28;20468;-81
2022/05/10 06:09:10;;;;;;;15.90;14.27;;;15.80;99.90;;;;;;5036426;28;20733;-81
2022/05/10 06:11:35;;;;;;;14.50;12.57;;;15.90;99.90;;;;;;5019937;28;20211;-80
2022/05/10 06:14:01;;;;;;;17.07;13.17;;;16.10;99.90;;;;;;5071265;28;20261;-81
2022/05/10 06:16:28;;;;;;;15.57;13.97;;;16.20;99.90;;;;;;5052723;28;20577;-80
2022/05/10 06:18:54;;;;;;;15.80;12.97;;;16.30;99.90;;;;;;5070930;28;20425;-80
2022/05/10 06:21:20;;;;;;;16.43;12.77;;;16.50;99.90;;;;;;5052659;28;20422;-80
2022/05/10 06:23:46;;;;;;;15.93;13.00;;;16.70;99.90;;;;;;5036090;28;20433;-80
2022/05/10 06:26:12;;;;;;;16.67;13.40;;;16.80;99.90;;;;;;5052953;28;20216;-81
2022/05/10 06:28:38;;;;;;;14.73;13.20;;;16.90;99.90;;;;;;5070868;28;20559;-80
2022/05/10 06:31:08;;;;;;;15.70;14.10;;;17.00;99.90;;;;;;5036213;28;20494;-80
2022/05/10 06:33:34;;;;;;;15.10;13.60;;;17.00;99.90;;;;;;5036059;28;20187;-80
2022/05/10 06:36:00;;;;;;;14.90;13.50;;;17.10;99.90;;;;;;5035792;28;20454;-80
2022/05/10 06:38:28;;;;;;;15.47;13.93;;;17.20;99.90;;;;;;5036136;28;20926;-80
2022/05/10 06:40:56;;;;;;;13.07;11.77;;;17.30;99.90;;;;;;5052537;28;20175;-80
2022/05/10 06:43:22;;;;;;;13.63;12.23;;;17.30;99.90;;;;;;5052361;28;20429;-80
2022/05/10 06:45:49;;;;;;;14.07;12.43;;;17.40;99.90;;;;;;5052115;28;20468;-80
2022/05/10 06:48:16;;;;;;;14.77;12.50;;;17.50;99.90;;;;;;5052390;28;20533;-80
2022/05/10 06:50:42;;;;;;;16.93;11.40;;;17.60;99.90;;;;;;5052302;28;20454;-80
2022/05/10 06:53:09;;;;;;;13.03;11.83;;;17.60;99.90;;;;;;5070944;28;21070;-80
2022/05/10 06:55:36;;;;;;;15.40;12.80;;;17.70;99.90;;;;;;5052588;28;20625;-79
2022/05/10 06:58:03;;;;;;;13.90;11.67;;;17.80;99.90;;;;;;5052767;28;20423;-80
2022/05/10 07:00:29;;;;;;;16.83;12.10;;;17.90;99.90;;;;;;5052437;28;20440;-79
2022/05/10 07:02:55;;;;;;;13.97;11.20;;;18.00;99.90;;;;;;5035605;28;20443;-80
2022/05/10 07:05:23;;;;;;;15.50;11.40;;;18.00;99.90;;;;;;5051722;28;20442;-80
2022/05/10 07:07:48;;;;;;;14.17;12.40;;;18.10;99.90;;;;;;5069068;28;20442;-80
2022/05/10 07:10:18;;;;;;;14.80;12.43;;;18.10;99.90;;;;;;5050302;28;20940;-80
2022/05/10 07:12:45;;;;;;;14.07;12.50;;;18.20;99.90;;;;;;5050042;28;20228;-80
2022/05/10 07:15:19;;;;;;;13.63;12.13;;;18.20;99.90;;;;;;5050230;28;20998;-80
2022/05/10 07:17:45;;;;;;;13.57;12.07;;;18.20;99.90;;;;;;5068755;28;20428;-80
2022/05/10 07:20:13;;;;;;;13.30;11.70;;;18.40;99.90;;;;;;5068904;28;20428;-80
2022/05/10 07:22:39;;;;;;;12.27;11.17;;;18.40;99.90;;;;;;5034096;28;20767;-80
2022/05/10 07:25:06;;;;;;;12.90;11.50;;;18.50;99.90;;;;;;5050641;28;20452;-80
2022/05/10 07:27:32;;;;;;;16.30;12.43;;;18.50;99.90;;;;;;5050706;28;20472;-80
2022/05/10 07:29:58;;;;;;;15.70;12.20;;;18.60;99.90;;;;;;5051164;28;20444;-80
2022/05/10 07:32:25;;;;;;;18.13;11.87;;;18.60;99.90;;;;;;5033978;28;20935;-80
2022/05/10 07:34:51;;;;;;;13.33;11.93;;;18.70;99.90;;;;;;5033725;28;20311;-80
2022/05/10 07:37:17;;;;;;;11.03;9.93;;;18.80;99.90;;;;;;5050254;28;20479;-80
2022/05/10 07:39:43;;;;;;;12.43;11.23;;;18.90;99.90;;;;;;5033329;28;20188;-80
2022/05/10 07:42:08;;;;;;;15.80;12.20;;;19.00;99.90;;;;;;5033026;28;20887;-80
2022/05/10 07:44:34;;;;;;;13.50;11.50;;;19.10;99.90;;;;;;5066689;28;20967;-81
2022/05/10 07:47:00;;;;;;;14.67;11.83;;;19.10;99.90;;;;;;5049561;28;20365;-80
2022/05/10 07:49:26;;;;;;;13.00;11.13;;;19.30;99.90;;;;;;5067589;28;20195;-80
2022/05/10 07:51:52;;;;;;;16.60;11.63;;;19.40;99.90;;;;;;5050048;28;20291;-87
2022/05/10 07:54:18;;;;;;;14.23;11.77;;;19.50;99.90;;;;;;5033929;28;20425;-88
2022/05/10 07:56:44;;;;;;;12.63;11.07;;;19.60;99.90;;;;;;5033376;28;20512;-87
2022/05/10 07:59:10;;;;;;;11.93;10.40;;;19.60;99.90;;;;;;5033405;28;20436;-88
2022/05/10 08:01:36;;;;;;;12.37;11.00;;;19.70;99.90;;;;;;5017587;28;20191;-87
2022/05/10 08:04:04;;;;;;;13.30;11.13;;;19.80;99.90;;;;;;5051505;28;20418;-88
2022/05/10 08:06:31;;;;;;;13.60;10.90;;;19.90;99.90;;;;;;5035011;28;20866;-86
2022/05/10 08:08:56;;;;;;;15.13;10.67;;;20.00;99.90;;;;;;5035116;28;21071;-87
2022/05/10 08:11:23;;;;;;;14.27;10.73;;;20.10;99.90;;;;;;5069857;28;20478;-87
2022/05/10 08:13:48;;;;;;;11.87;10.60;;;20.20;99.90;;;;;;5033880;28;20433;-86
2022/05/10 08:16:16;;;;;;;20.30;11.27;;;20.40;99.90;;;;;;5050035;28;20266;-88
2022/05/10 08:18:45;;;;;;;11.33;9.80;;;20.40;99.90;;;;;;5069042;28;20228;-88
2022/05/10 08:21:13;;;;;;;12.03;10.83;;;20.60;99.90;;;;;;5050171;28;20436;-85
2022/05/10 08:23:40;;;;;;;14.07;10.27;;;20.70;99.90;;;;;;5068345;28;20833;-86
2022/05/10 08:26:08;;;;;;;13.73;10.70;;;20.80;99.90;;;;;;5017533;28;20615;-89
2022/05/10 08:28:36;;;;;;;11.70;9.50;;;20.90;99.90;;;;;;5017410;28;20424;-87
2022/05/10 08:31:07;;;;;;;11.10;10.10;;;20.80;99.90;;;;;;5068015;28;20421;-87
2022/05/10 08:33:36;;;;;;;11.27;10.17;;;21.00;99.90;;;;;;5015939;28;20425;-88
2022/05/10 08:36:02;;;;;;;10.97;9.50;;;21.10;99.90;;;;;;5048981;28;20978;-87
2022/05/10 08:38:30;;;;;;;12.70;9.77;;;21.40;99.90;;;;;;5049168;28;20964;-88
2022/05/10 08:41:24;;;;;;;11.63;8.90;;;21.60;99.90;;;;;;5049240;28;20433;-87
2022/05/10 08:43:57;;;;;;;10.70;9.13;;;21.80;99.90;;;;;;5049040;28;20436;-88
2022/05/10 08:46:38;;;;;;;13.13;9.60;;;22.00;99.90;;;;;;5067311;28;20472;-87
2022/05/10 08:49:20;;;;;;;9.80;8.90;;;22.30;99.90;;;;;;5067238;28;20405;-88
2022/05/10 08:51:47;;;;;;;13.13;8.77;;;22.60;99.90;;;;;;5032857;28;20440;-89
2022/05/10 08:54:13;;;;;;;9.27;8.13;;;22.80;99.90;;;;;;5032993;28;20431;-90
2022/05/10 08:56:51;;;;;;;13.83;9.40;;;23.10;99.90;;;;;;5032475;28;20465;-89
2022/05/10 08:59:28;;;;;;;9.37;8.47;;;23.40;99.90;;;;;;5037580;28;20184;-88
2022/05/10 09:02:07;;;;;;;9.73;7.80;;;23.60;99.90;;;;;;5071494;28;20439;-89
2022/05/10 09:04:47;;;;;;;9.00;8.00;;;23.90;99.90;;;;;;5037124;28;20442;-90
2022/05/10 09:07:24;;;;;;;13.97;8.83;;;24.10;99.90;;;;;;5037125;28;20560;-89
2022/05/10 09:10:09;;;;;;;8.30;7.60;;;24.40;99.90;;;;;;5053952;28;20430;-90
2022/05/10 09:12:52;;;;;;;7.93;6.77;;;24.60;99.80;;;;;;5071737;28;20432;-88
2022/05/10 09:15:18;;;;;;;7.47;6.83;;;24.80;99.50;;;;;;5053403;28;20486;-89
2022/05/10 09:17:44;;;;;;;12.33;6.67;;;25.20;98.30;;;;;;5053272;28;20454;-89
2022/05/10 09:20:11;;;;;;;7.63;6.93;;;25.40;97.90;;;;;;5071670;28;20447;-90
2022/05/10 09:23:09;;;;;;;6.60;5.97;;;25.60;95.80;;;;;;5053487;28;20427;-90
2022/05/10 09:25:41;;;;;;;6.97;6.30;;;25.80;92.20;;;;;;5053292;28;20448;-87
2022/05/10 09:28:14;;;;;;;6.13;5.63;;;26.00;92.60;;;;;;5053182;28;20443;-86
2022/05/10 09:30:40;;;;;;;8.47;6.30;;;26.20;91.20;;;;;;5053689;28;20420;-90
2022/05/10 09:36:03;;;;;;;5.97;5.47;;;26.70;91.30;;;;;;5071824;28;20558;-92
2022/05/10 09:38:30;;;;;;;6.73;6.00;;;26.60;87.80;;;;;;5053493;28;20424;-90
2022/05/10 09:40:56;;;;;;;6.47;5.87;;;26.60;88.60;;;;;;5053330;28;20432;-89
2022/05/10 09:43:25;;;;;;;7.00;5.90;;;27.00;88.80;;;;;;5037129;28;20826;-89
2022/05/10 09:46:21;;;;;;;7.20;6.03;;;27.10;88.10;;;;;;5052756;28;20210;-90
2022/05/10 09:48:47;;;;;;;10.87;6.57;;;27.20;86.70;;;;;;5052869;28;20444;-89
2022/05/10 09:51:31;;;;;;;5.70;5.20;;;27.10;84.20;;;;;;5071189;28;20435;-90
2022/05/10 09:53:58;;;;;;;6.60;5.77;;;27.30;86.70;;;;;;5053121;28;20450;-90
2022/05/10 09:56:24;;;;;;;6.57;5.97;;;27.60;86.70;;;;;;5019966;28;20444;-87
2022/05/10 09:58:59;;;;;;;9.50;6.00;;;27.70;85.40;;;;;;5052844;28;20423;-90
2022/05/10 10:01:43;;;;;;;6.20;5.60;;;27.90;82.30;;;;;;5052911;28;20696;-88
2022/05/10 10:04:34;;;;;;;6.30;5.53;;;28.00;77.30;;;;;;5035467;28;20448;-88
2022/05/10 10:07:24;;;;;;;8.13;6.10;;;28.10;79.60;;;;;;5036252;28;20476;-91
2022/05/10 10:09:56;;;;;;;5.73;5.20;;;28.20;77.40;;;;;;5071829;28;20505;-88
2022/05/10 10:12:32;;;;;;;6.50;5.20;;;28.30;77.70;;;;;;5037059;28;20507;-89
2022/05/10 10:14:59;;;;;;;5.67;5.17;;;28.40;75.70;;;;;;5036580;28;20990;-88
2022/05/10 10:17:36;;;;;;;5.87;5.33;;;28.40;74.90;;;;;;5036069;28;20428;-88
2022/05/10 10:20:07;;;;;;;6.60;5.37;;;28.20;76.10;;;;;;5053988;28;20465;-88
2022/05/10 10:22:40;;;;;;;5.60;5.03;;;28.20;75.10;;;;;;5052619;28;20502;-86
2022/05/10 10:25:26;;;;;;;5.90;5.20;;;28.30;75.30;;;;;;5070369;28;20437;-89
2022/05/10 10:28:31;;;;;;;5.33;4.93;;;28.20;75.50;;;;;;5036715;28;20433;-85
2022/05/10 10:31:06;;;;;;;5.07;4.77;;;28.10;73.70;;;;;;5052729;28;20471;-85
2022/05/10 10:33:39;;;;;;;5.40;4.90;;;28.10;76.40;;;;;;5052362;28;20425;-84
2022/05/10 10:36:08;;;;;;;7.60;5.37;;;28.30;73.10;;;;;;5070824;28;20429;-83
2022/05/10 10:38:57;;;;;;;7.63;5.50;;;27.90;70.50;;;;;;5070501;28;20470;-84
2022/05/10 10:41:39;;;;;;;8.10;5.20;;;28.00;73.70;;;;;;5068086;28;20425;-86
2022/05/10 10:44:22;;;;;;;5.03;4.53;;;28.10;72.40;;;;;;5069929;28;20526;-89
2022/05/10 10:47:09;;;;;;;5.57;4.33;;;28.60;72.80;;;;;;5035290;28;20473;-85
2022/05/10 10:49:44;;;;;;;5.70;5.10;;;29.00;71.00;;;;;;5069722;28;20424;-86
2022/05/10 10:52:12;;;;;;;7.73;4.37;;;29.10;68.30;;;;;;5051575;28;20524;-83
2022/05/10 10:54:38;;;;;;;6.83;4.87;;;29.30;71.30;;;;;;5035002;28;20468;-83
2022/05/10 10:57:25;;;;;;;6.17;4.80;;;29.40;69.80;;;;;;5034699;28;20445;-83
2022/05/10 11:00:11;;;;;;;5.27;4.03;;;29.20;69.90;;;;;;5069122;28;20989;-84
2022/05/10 11:03:00;;;;;;;4.67;4.27;;;29.40;66.80;;;;;;5050929;28;20503;-84
2022/05/10 11:05:28;;;;;;;4.03;3.73;;;29.60;65.10;;;;;;5068689;28;20463;-85
2022/05/10 11:08:05;;;;;;;6.20;4.23;;;29.20;58.00;;;;;;5051598;28;21040;-85
2022/05/10 11:11:08;;;;;;;5.00;3.60;;;29.40;61.20;;;;;;5052089;28;20429;-85
2022/05/10 11:14:04;;;;;;;4.60;4.13;;;29.40;58.70;;;;;;5068942;28;20418;-86
2022/05/10 11:16:54;;;;;;;5.83;3.73;;;29.60;62.80;;;;;;5050910;28;20435;-84
2022/05/10 11:19:44;;;;;;;5.73;3.70;;;29.60;58.80;;;;;;5068677;28;20409;-84
2022/05/10 11:22:38;;;;;;;3.73;3.43;;;29.70;57.90;;;;;;5051681;28;20794;-86
2022/05/10 11:25:14;;;;;;;3.10;2.90;;;29.70;56.70;;;;;;5069262;28;20446;-86
2022/05/10 11:28:02;;;;;;;3.90;3.33;;;29.40;52.90;;;;;;5051893;28;20461;-92
2022/05/10 11:30:40;;;;;;;3.33;2.80;;;29.60;53.10;;;;;;5069717;28;20500;-86
2022/05/10 11:33:26;;;;;;;4.30;3.40;;;29.60;50.80;;;;;;5051191;28;20417;-90
2022/05/10 11:36:11;;;;;;;3.37;3.17;;;29.60;51.60;;;;;;5051482;28;20477;-86
2022/05/10 11:38:40;;;;;;;3.60;3.30;;;29.50;50.90;;;;;;5050448;28;20479;-84
2022/05/10 11:41:34;;;;;;;3.40;3.13;;;29.10;53.90;;;;;;5050484;28;20436;-85
2022/05/10 11:44:21;;;;;;;5.83;3.43;;;29.10;53.80;;;;;;5050327;28;20444;-87
2022/05/10 11:46:54;;;;;;;3.80;3.50;;;28.80;50.10;;;;;;5049990;28;20472;-85
2022/05/10 11:49:29;;;;;;;3.47;3.17;;;29.00;51.30;;;;;;5049605;28;20500;-89
2022/05/10 11:52:16;;;;;;;3.03;2.73;;;29.20;52.20;;;;;;5068198;28;20429;-90
2022/05/10 11:54:56;;;;;;;4.60;3.40;;;29.80;52.70;;;;;;5049878;28;20417;-85
2022/05/10 11:57:24;;;;;;;3.27;2.97;;;30.00;52.70;;;;;;5049619;28;20445;-86
2022/05/10 11:59:50;;;;;;;3.93;3.40;;;30.00;52.70;;;;;;5067947;28;20433;-84
2022/05/10 12:02:28;;;;;;;3.53;3.33;;;29.80;53.10;;;;;;5032841;28;20426;-87
2022/05/10 12:05:23;;;;;;;4.07;3.67;;;30.00;52.60;;;;;;5049816;28;20264;-85
2022/05/10 12:07:55;;;;;;;2.90;2.70;;;30.00;52.30;;;;;;5049356;28;20859;-86
2022/05/10 12:10:25;;;;;;;4.80;3.60;;;30.10;52.60;;;;;;5049827;28;20444;-91
2022/05/10 12:13:04;;;;;;;3.63;2.93;;;30.00;51.10;;;;;;5049076;28;20436;-87
2022/05/10 12:21:52;;;;;;;6.93;3.37;;;30.10;51.10;;;;;;5067974;28;20443;-87
2022/05/10 12:24:20;;;;;;;4.23;3.33;;;30.30;50.00;;;;;;5067909;28;20410;-88
2022/05/10 12:26:54;;;;;;;3.20;2.90;;;30.40;50.80;;;;;;5068342;28;20472;-92
2022/05/10 12:29:34;;;;;;;4.63;3.43;;;30.10;47.50;;;;;;5049788;28;20476;-87
2022/05/10 12:32:53;;;;;;;3.73;3.20;;;30.20;50.10;;;;;;5049256;28;20467;-91
2022/05/10 12:35:32;;;;;;;3.00;2.67;;;30.40;49.00;;;;;;5067712;28;20472;-92
2022/05/10 12:38:00;;;;;;;5.07;3.10;;;30.40;46.90;;;;;;5050364;28;20432;-90
2022/05/10 12:40:57;;;;;;;3.97;3.67;;;30.50;48.20;;;;;;5049836;28;20433;-91
2022/05/10 12:43:48;;;;;;;3.50;3.30;;;29.90;45.20;;;;;;5033552;28;20437;-93
2022/05/10 12:46:25;;;;;;;4.47;3.40;;;29.90;48.80;;;;;;5049286;28;21026;-90
2022/05/10 12:49:25;;;;;;;3.37;3.17;;;29.80;49.20;;;;;;5049854;28;20492;-90
2022/05/10 12:52:20;;;;;;;4.23;3.93;;;29.90;50.00;;;;;;5068201;28;20483;-90
2022/05/10 12:54:50;;;;;;;3.57;3.27;;;29.80;50.90;;;;;;5049463;28;20462;-85
2022/05/10 12:57:28;;;;;;;2.97;2.77;;;29.90;49.70;;;;;;5032969;28;20437;-91
2022/05/10 13:00:08;;;;;;;5.60;3.47;;;29.90;51.00;;;;;;5068510;28;20430;-91
2022/05/10 13:02:38;;;;;;;3.47;3.17;;;29.90;48.90;;;;;;5049449;28;20437;-85
2022/05/10 13:05:08;;;;;;;3.70;3.23;;;30.00;49.70;;;;;;5032403;28;20445;-86
2022/05/10 13:08:05;;;;;;;3.57;3.20;;;30.00;49.30;;;;;;5048871;28;20469;-85
2022/05/10 13:10:34;;;;;;;3.43;3.03;;;29.90;49.20;;;;;;5032094;28;20513;-87
2022/05/10 13:13:15;;;;;;;3.17;2.97;;;29.90;49.50;;;;;;5031945;28;20425;-89
2022/05/10 13:15:44;;;;;;;3.30;3.10;;;30.10;48.90;;;;;;5048727;28;21047;-87
2022/05/10 13:18:23;;;;;;;3.20;3.00;;;29.90;50.10;;;;;;5048650;28;20432;-83
2022/05/10 13:20:53;;;;;;;3.40;3.20;;;30.10;50.80;;;;;;5031824;28;20947;-87
2022/05/10 13:23:25;;;;;;;4.00;3.03;;;30.00;49.20;;;;;;5062346;28;20444;-89